sensor_id;sensor_type;location;lat;lon;timestamp;temperature;humidity
59855;DHT22;45732;52.850;6.896;2023-04-01T00:01:38;10.90;99.90
59855;DHT22;45732;52.850;6.896;2023-04-01T00:04:04;10.80;99.90
59855;DHT22;45732;52.850;6.896;2023-04-01T00:06:30;10.80;99.90
59855;DHT22;45732;52.850;6.896;2023-04-01T00:08:56;10.80;99.90
59855;DHT22;45732;52.850;6.896;2023-04-01T00:11:22;10.90;99.90
59855;DHT22;45732;52.850;6.896;2023-04-01T00:13:48;10.90;99.90
59855;DHT22;45732;52.850;6.896;2023-04-01T00:16:15;10.90;99.90
59855;DHT22;45732;52.850;6.896;2023-04-01T00:18:41;10.90;99.90
59855;DHT22;45732;52.850;6.896;2023-04-01T00:21:07;10.90;99.90
59855;DHT22;45732;52.850;6.896;2023-04-01T00:23:33;10.90;99.90
59855;DHT22;45732;52.850;6.896;2023-04-01T00:26:00;10.90;99.90
59855;DHT22;45732;52.850;6.896;2023-04-01T00:28:26;10.90;99.90
59855;DHT22;45732;52.850;6.896;2023-04-01T00:30:52;10.90;99.90
59855;DHT22;45732;52.850;6.896;2023-04-01T00:33:18;10.90;99.90
59855;DHT22;45732;52.850;6.896;2023-04-01T00:35:44;10.90;99.90
59855;DHT22;45732;52.850;6.896;2023-04-01T00:38:11;10.90;99.90
59855;DHT22;45732;52.850;6.896;2023-04-01T00:40:44;10.90;99.90
59855;DHT22;45732;52.850;6.896;2023-04-01T00:43:13;11.00;99.90
59855;DHT22;45732;52.850;6.896;2023-04-01T00:45:42;10.90;99.90
59855;DHT22;45732;52.850;6.896;2023-04-01T00:48:21;10.90;99.90
59855;DHT22;45732;52.850;6.896;2023-04-01T00:51:04;11.00;99.90
59855;DHT22;45732;52.850;6.896;2023-04-01T00:53:33;10.90;99.90
59855;DHT22;45732;52.850;6.896;2023-04-01T00:56:21;10.90;99.90
59855;DHT22;45732;52.850;6.896;2023-04-01T00:58:51;10.90;99.90
59855;DHT22;45732;52.850;6.896;2023-04-01T01:01:22;10.90;99.90
59855;DHT22;45732;52.850;6.896;2023-04-01T01:03:48;10.80;99.90
59855;DHT22;45732;52.850;6.896;2023-04-01T01:11:37;10.80;99.90
59855;DHT22;45732;52.850;6.896;2023-04-01T01:14:36;10.80;99.90
59855;DHT22;45732;52.850;6.896;2023-04-01T01:31:30;10.70;99.90
59855;DHT22;45732;52.850;6.896;2023-04-01T01:34:55;10.70;99.90
59855;DHT22;45732;52.850;6.896;2023-04-01T01:37:05;10.80;99.90
59855;DHT22;45732;52.850;6.896;2023-04-01T01:39:34;10.80;99.90
59855;DHT22;45732;52.850;6.896;2023-04-01T01:42:04;10.80;99.90
59855;DHT22;45732;52.850;6.896;2023-04-01T01:44:32;10.80;99.90
59855;DHT22;45732;52.850;6.896;2023-04-01T01:47:00;10.70;99.90
59855;DHT22;45732;52.850;6.896;2023-04-01T01:49:27;10.70;99.90
59855;DHT22;45732;52.850;6.896;2023-04-01T01:51:53;10.70;99.90
59855;DHT22;45732;52.850;6.896;2023-04-01T01:54:19;10.70;99.90
59855;DHT22;45732;52.850;6.896;2023-04-01T01:56:49;10.70;99.90
59855;DHT22;45732;52.850;6.896;2023-04-01T01:59:17;10.80;99.90
59855;DHT22;45732;52.850;6.896;2023-04-01T02:01:51;10.80;99.90
59855;DHT22;45732;52.850;6.896;2023-04-01T02:04:19;10.80;99.90
59855;DHT22;45732;52.850;6.896;2023-04-01T02:06:58;10.70;99.90
59855;DHT22;45732;52.850;6.896;2023-04-01T02:09:26;10.80;99.90
59855;DHT22;45732;52.850;6.896;2023-04-01T02:11:57;10.80;99.90
59855;DHT22;45732;52.850;6.896;2023-04-01T02:14:34;10.80;99.90
59855;DHT22;45732;52.850;6.896;2023-04-01T02:17:07;10.80;99.90
59855;DHT22;45732;52.850;6.896;2023-04-01T02:19:46;10.80;99.90
59855;DHT22;45732;52.850;6.896;2023-04-01T02:22:16;10.80;99.90
59855;DHT22;45732;52.850;6.896;2023-04-01T02:24:43;10.80;99.90
59855;DHT22;45732;52.850;6.896;2023-04-01T02:27:11;10.80;99.90
59855;DHT22;45732;52.850;6.896;2023-04-01T02:29:37;10.80;99.90
59855;DHT22;45732;52.850;6.896;2023-04-01T02:32:03;10.80;99.90
59855;DHT22;45732;52.850;6.896;2023-04-01T02:34:29;10.80;99.90
59855;DHT22;45732;52.850;6.896;2023-04-01T02:36:56;10.80;99.90
59855;DHT22;45732;52.850;6.896;2023-04-01T02:39:22;10.80;99.90
59855;DHT22;45732;52.850;6.896;2023-04-01T02:41:48;10.80;99.90
59855;DHT22;45732;52.850;6.896;2023-04-01T02:44:15;10.80;99.90
59855;DHT22;45732;52.850;6.896;2023-04-01T02:46:42;10.80;99.90
59855;DHT22;45732;52.850;6.896;2023-04-01T02:49:08;10.80;99.90
59855;DHT22;45732;52.850;6.896;2023-04-01T02:51:34;10.80;99.90
59855;DHT22;45732;52.850;6.896;2023-04-01T02:54:00;10.80;99.90
59855;DHT22;45732;52.850;6.896;2023-04-01T02:56:26;10.80;99.90
59855;DHT22;45732;52.850;6.896;2023-04-01T02:58:52;10.80;99.90
59855;DHT22;45732;52.850;6.896;2023-04-01T03:01:18;10.80;99.90
59855;DHT22;45732;52.850;6.896;2023-04-01T03:03:44;10.80;99.90
59855;DHT22;45732;52.850;6.896;2023-04-01T03:06:14;10.80;99.90
59855;DHT22;45732;52.850;6.896;2023-04-01T03:08:41;10.80;99.90
59855;DHT22;45732;52.850;6.896;2023-04-01T03:11:08;10.80;99.90
59855;DHT22;45732;52.850;6.896;2023-04-01T03:13:34;10.80;99.90
59855;DHT22;45732;52.850;6.896;2023-04-01T03:16:00;10.70;99.90
59855;DHT22;45732;52.850;6.896;2023-04-01T03:18:25;10.80;99.90
59855;DHT22;45732;52.850;6.896;2023-04-01T03:20:51;10.80;99.90
59855;DHT22;45732;52.850;6.896;2023-04-01T03:23:17;10.70;99.90
59855;DHT22;45732;52.850;6.896;2023-04-01T03:25:45;10.70;99.90
59855;DHT22;45732;52.850;6.896;2023-04-01T03:28:11;10.70;99.90
59855;DHT22;45732;52.850;6.896;2023-04-01T03:30:37;10.60;99.90
59855;DHT22;45732;52.850;6.896;2023-04-01T03:33:03;10.60;99.90
59855;DHT22;45732;52.850;6.896;2023-04-01T03:35:29;10.50;99.90
59855;DHT22;45732;52.850;6.896;2023-04-01T03:37:55;10.50;99.90
59855;DHT22;45732;52.850;6.896;2023-04-01T03:40:21;10.50;99.90
59855;DHT22;45732;52.850;6.896;2023-04-01T03:42:47;10.50;99.90
59855;DHT22;45732;52.850;6.896;2023-04-01T03:45:13;10.50;99.90
59855;DHT22;45732;52.850;6.896;2023-04-01T03:47:39;10.50;99.90
59855;DHT22;45732;52.850;6.896;2023-04-01T03:50:06;10.50;99.90
59855;DHT22;45732;52.850;6.896;2023-04-01T03:52:32;10.50;99.90
59855;DHT22;45732;52.850;6.896;2023-04-01T03:54:58;10.50;99.90
59855;DHT22;45732;52.850;6.896;2023-04-01T03:57:23;10.50;99.90
59855;DHT22;45732;52.850;6.896;2023-04-01T03:59:49;10.50;99.90
59855;DHT22;45732;52.850;6.896;2023-04-01T04:02:15;10.40;99.90
59855;DHT22;45732;52.850;6.896;2023-04-01T04:04:41;10.50;99.90
59855;DHT22;45732;52.850;6.896;2023-04-01T04:07:06;10.50;99.90
59855;DHT22;45732;52.850;6.896;2023-04-01T04:09:32;10.40;99.90
59855;DHT22;45732;52.850;6.896;2023-04-01T04:11:59;10.50;99.90
59855;DHT22;45732;52.850;6.896;2023-04-01T04:14:25;10.50;99.90
59855;DHT22;45732;52.850;6.896;2023-04-01T04:16:50;10.50;99.90
59855;DHT22;45732;52.850;6.896;2023-04-01T04:19:16;10.50;99.90
59855;DHT22;45732;52.850;6.896;2023-04-01T04:21:42;10.50;99.90
59855;DHT22;45732;52.850;6.896;2023-04-01T04:24:08;10.50;99.90
59855;DHT22;45732;52.850;6.896;2023-04-01T04:26:34;10.50;99.90
59855;DHT22;45732;52.850;6.896;2023-04-01T04:29:00;10.50;99.90
59855;DHT22;45732;52.850;6.896;2023-04-01T04:31:26;10.50;99.90
59855;DHT22;45732;52.850;6.896;2023-04-01T04:33:52;10.50;99.90
59855;DHT22;45732;52.850;6.896;2023-04-01T04:36:19;10.50;99.90
59855;DHT22;45732;52.850;6.896;2023-04-01T04:38:45;10.50;99.90
59855;DHT22;45732;52.850;6.896;2023-04-01T04:41:15;10.50;99.90
59855;DHT22;45732;52.850;6.896;2023-04-01T04:43:52;10.50;99.90
59855;DHT22;45732;52.850;6.896;2023-04-01T04:46:19;10.50;99.90
59855;DHT22;45732;52.850;6.896;2023-04-01T04:48:45;10.40;99.90
59855;DHT22;45732;52.850;6.896;2023-04-01T04:51:18;10.40;99.90
59855;DHT22;45732;52.850;6.896;2023-04-01T04:53:45;10.40;99.90
59855;DHT22;45732;52.850;6.896;2023-04-01T04:56:11;10.40;99.90
59855;DHT22;45732;52.850;6.896;2023-04-01T04:58:37;10.40;99.90
59855;DHT22;45732;52.850;6.896;2023-04-01T05:01:08;10.40;99.90
59855;DHT22;45732;52.850;6.896;2023-04-01T05:03:34;10.40;99.90
59855;DHT22;45732;52.850;6.896;2023-04-01T05:06:00;10.40;99.90
59855;DHT22;45732;52.850;6.896;2023-04-01T05:08:26;10.30;99.90
59855;DHT22;45732;52.850;6.896;2023-04-01T05:10:51;10.40;99.90
59855;DHT22;45732;52.850;6.896;2023-04-01T05:13:17;10.40;99.90
59855;DHT22;45732;52.850;6.896;2023-04-01T05:15:43;10.30;99.90
59855;DHT22;45732;52.850;6.896;2023-04-01T05:18:08;10.40;99.90
59855;DHT22;45732;52.850;6.896;2023-04-01T05:20:34;10.40;99.90
59855;DHT22;45732;52.850;6.896;2023-04-01T05:23:00;10.40;99.90
59855;DHT22;45732;52.850;6.896;2023-04-01T05:25:26;10.30;99.90
59855;DHT22;45732;52.850;6.896;2023-04-01T05:27:52;10.40;99.90
59855;DHT22;45732;52.850;6.896;2023-04-01T05:30:18;10.40;99.90
59855;DHT22;45732;52.850;6.896;2023-04-01T05:32:43;10.30;99.90
59855;DHT22;45732;52.850;6.896;2023-04-01T05:35:10;10.30;99.90
59855;DHT22;45732;52.850;6.896;2023-04-01T05:37:36;10.30;99.90
59855;DHT22;45732;52.850;6.896;2023-04-01T05:40:03;10.40;99.90
59855;DHT22;45732;52.850;6.896;2023-04-01T05:42:29;10.40;99.90
59855;DHT22;45732;52.850;6.896;2023-04-01T05:44:55;10.40;99.90
59855;DHT22;45732;52.850;6.896;2023-04-01T05:47:21;10.40;99.90
59855;DHT22;45732;52.850;6.896;2023-04-01T05:49:47;10.40;99.90
59855;DHT22;45732;52.850;6.896;2023-04-01T05:52:13;10.50;99.90
59855;DHT22;45732;52.850;6.896;2023-04-01T05:54:39;10.50;99.90
59855;DHT22;45732;52.850;6.896;2023-04-01T05:57:04;10.50;99.90
59855;DHT22;45732;52.850;6.896;2023-04-01T05:59:30;10.50;99.90
59855;DHT22;45732;52.850;6.896;2023-04-01T06:02:00;10.50;99.90
59855;DHT22;45732;52.850;6.896;2023-04-01T06:04:31;10.50;99.90
59855;DHT22;45732;52.850;6.896;2023-04-01T06:06:58;10.50;99.90
59855;DHT22;45732;52.850;6.896;2023-04-01T06:09:29;10.50;99.90
59855;DHT22;45732;52.850;6.896;2023-04-01T06:12:13;10.50;99.90
59855;DHT22;45732;52.850;6.896;2023-04-01T06:17:21;10.60;99.90
59855;DHT22;45732;52.850;6.896;2023-04-01T06:20:17;10.60;99.90
59855;DHT22;45732;52.850;6.896;2023-04-01T06:22:59;10.60;99.90
59855;DHT22;45732;52.850;6.896;2023-04-01T06:28:38;10.60;99.90
59855;DHT22;45732;52.850;6.896;2023-04-01T06:53:05;10.80;99.90
59855;DHT22;45732;52.850;6.896;2023-04-01T06:55:43;10.80;99.90
59855;DHT22;45732;52.850;6.896;2023-04-01T06:58:31;10.80;99.90
59855;DHT22;45732;52.850;6.896;2023-04-01T07:01:02;10.80;99.90
59855;DHT22;45732;52.850;6.896;2023-04-01T07:03:50;10.80;99.90
59855;DHT22;45732;52.850;6.896;2023-04-01T07:06:30;10.80;99.90
59855;DHT22;45732;52.850;6.896;2023-04-01T07:08:59;10.80;99.90
59855;DHT22;45732;52.850;6.896;2023-04-01T07:11:34;10.90;99.90
59855;DHT22;45732;52.850;6.896;2023-04-01T07:17:08;10.90;99.90
59855;DHT22;45732;52.850;6.896;2023-04-01T07:20:00;10.90;99.90
59855;DHT22;45732;52.850;6.896;2023-04-01T07:22:39;10.90;99.90
59855;DHT22;45732;52.850;6.896;2023-04-01T07:27:43;10.90;99.90
59855;DHT22;45732;52.850;6.896;2023-04-01T07:30:20;11.00;99.90
59855;DHT22;45732;52.850;6.896;2023-04-01T07:33:02;10.90;99.90
59855;DHT22;45732;52.850;6.896;2023-04-01T07:35:44;11.00;99.90
59855;DHT22;45732;52.850;6.896;2023-04-01T07:52:21;10.90;99.90
59855;DHT22;45732;52.850;6.896;2023-04-01T07:54:59;11.00;99.90
59855;DHT22;45732;52.850;6.896;2023-04-01T08:00:57;10.90;99.90
59855;DHT22;45732;52.850;6.896;2023-04-01T08:06:20;10.90;99.90
59855;DHT22;45732;52.850;6.896;2023-04-01T08:09:07;10.90;99.90
59855;DHT22;45732;52.850;6.896;2023-04-01T08:12:13;10.90;99.90
59855;DHT22;45732;52.850;6.896;2023-04-01T08:17:58;11.00;99.90
59855;DHT22;45732;52.850;6.896;2023-04-01T08:20:37;11.10;99.90
59855;DHT22;45732;52.850;6.896;2023-04-01T08:23:15;11.20;99.90
59855;DHT22;45732;52.850;6.896;2023-04-01T08:28:27;11.40;99.90
59855;DHT22;45732;52.850;6.896;2023-04-01T08:31:09;11.40;99.90
59855;DHT22;45732;52.850;6.896;2023-04-01T08:33:37;11.50;99.90
59855;DHT22;45732;52.850;6.896;2023-04-01T08:36:17;11.50;99.90
59855;DHT22;45732;52.850;6.896;2023-04-01T08:47:20;11.70;99.90
59855;DHT22;45732;52.850;6.896;2023-04-01T08:53:57;11.90;99.90
59855;DHT22;45732;52.850;6.896;2023-04-01T09:13:38;11.90;99.90
59855;DHT22;45732;52.850;6.896;2023-04-01T09:21:22;11.90;99.90
59855;DHT22;45732;52.850;6.896;2023-04-01T09:29:34;11.90;99.90
59855;DHT22;45732;52.850;6.896;2023-04-01T09:34:55;12.00;99.90
59855;DHT22;45732;52.850;6.896;2023-04-01T09:37:35;12.00;99.90
59855;DHT22;45732;52.850;6.896;2023-04-01T09:40:31;12.00;99.90
59855;DHT22;45732;52.850;6.896;2023-04-01T09:43:13;12.00;99.90
59855;DHT22;45732;52.850;6.896;2023-04-01T09:54:09;12.10;99.90
59855;DHT22;45732;52.850;6.896;2023-04-01T10:00:04;12.20;99.90
59855;DHT22;45732;52.850;6.896;2023-04-01T10:27:58;12.40;99.90
59855;DHT22;45732;52.850;6.896;2023-04-01T10:38:42;12.40;99.90
59855;DHT22;45732;52.850;6.896;2023-04-01T10:43:57;12.40;99.90
59855;DHT22;45732;52.850;6.896;2023-04-01T10:54:55;12.10;99.90
59855;DHT22;45732;52.850;6.896;2023-04-01T11:04:00;12.00;99.90
59855;DHT22;45732;52.850;6.896;2023-04-01T11:17:42;11.80;99.90
59855;DHT22;45732;52.850;6.896;2023-04-01T11:20:42;11.90;99.90
59855;DHT22;45732;52.850;6.896;2023-04-01T11:39:59;11.80;99.90
59855;DHT22;45732;52.850;6.896;2023-04-01T11:48:07;11.80;99.90
59855;DHT22;45732;52.850;6.896;2023-04-01T11:50:53;11.70;99.90
59855;DHT22;45732;52.850;6.896;2023-04-01T12:12:27;11.60;99.90
59855;DHT22;45732;52.850;6.896;2023-04-01T12:18:23;11.70;99.90
59855;DHT22;45732;52.850;6.896;2023-04-01T12:21:20;11.60;99.90
59855;DHT22;45732;52.850;6.896;2023-04-01T12:24:20;11.70;99.90
59855;DHT22;45732;52.850;6.896;2023-04-01T12:32:57;11.80;99.90
59855;DHT22;45732;52.850;6.896;2023-04-01T12:38:14;11.80;99.90
59855;DHT22;45732;52.850;6.896;2023-04-01T12:40:50;11.80;99.90
59855;DHT22;45732;52.850;6.896;2023-04-01T12:49:14;11.70;99.90
59855;DHT22;45732;52.850;6.896;2023-04-01T12:52:13;11.60;99.90
59855;DHT22;45732;52.850;6.896;2023-04-01T12:57:33;11.50;99.90
59855;DHT22;45732;52.850;6.896;2023-04-01T13:05:42;11.30;99.90
59855;DHT22;45732;52.850;6.896;2023-04-01T13:08:24;11.20;99.90
59855;DHT22;45732;52.850;6.896;2023-04-01T13:11:02;11.20;99.90
59855;DHT22;45732;52.850;6.896;2023-04-01T13:16:31;11.00;99.90
59855;DHT22;45732;52.850;6.896;2023-04-01T13:24:31;11.20;99.90
59855;DHT22;45732;52.850;6.896;2023-04-01T13:27:18;11.20;99.90
59855;DHT22;45732;52.850;6.896;2023-04-01T13:35:37;11.20;99.90
59855;DHT22;45732;52.850;6.896;2023-04-01T13:43:51;11.10;99.90
59855;DHT22;45732;52.850;6.896;2023-04-01T13:46:34;11.00;99.90
59855;DHT22;45732;52.850;6.896;2023-04-01T13:52:33;10.90;99.90
59855;DHT22;45732;52.850;6.896;2023-04-01T14:12:10;10.90;99.90
59855;DHT22;45732;52.850;6.896;2023-04-01T14:21:14;11.00;99.90
59855;DHT22;45732;52.850;6.896;2023-04-01T14:35:17;10.70;99.90
59855;DHT22;45732;52.850;6.896;2023-04-01T14:43:04;10.80;99.90
59855;DHT22;45732;52.850;6.896;2023-04-01T14:51:21;10.70;99.90
59855;DHT22;45732;52.850;6.896;2023-04-01T14:54:17;10.70;99.90
59855;DHT22;45732;52.850;6.896;2023-04-01T14:59:51;10.70;99.90
59855;DHT22;45732;52.850;6.896;2023-04-01T15:13:12;10.70;99.90
59855;DHT22;45732;52.850;6.896;2023-04-01T15:18:53;10.50;99.90
59855;DHT22;45732;52.850;6.896;2023-04-01T15:23:57;10.60;99.90
59855;DHT22;45732;52.850;6.896;2023-04-01T15:36:07;10.50;99.90
59855;DHT22;45732;52.850;6.896;2023-04-01T15:41:35;10.50;99.90
59855;DHT22;45732;52.850;6.896;2023-04-01T15:44:03;10.40;99.90
59855;DHT22;45732;52.850;6.896;2023-04-01T15:46:47;10.40;99.90
59855;DHT22;45732;52.850;6.896;2023-04-01T16:00:27;10.20;99.90
59855;DHT22;45732;52.850;6.896;2023-04-01T16:11:28;10.10;99.90
59855;DHT22;45732;52.850;6.896;2023-04-01T16:14:23;10.00;99.90
59855;DHT22;45732;52.850;6.896;2023-04-01T16:22:59;10.00;99.90
59855;DHT22;45732;52.850;6.896;2023-04-01T16:25:40;9.90;99.90
59855;DHT22;45732;52.850;6.896;2023-04-01T16:28:40;9.90;99.90
59855;DHT22;45732;52.850;6.896;2023-04-01T16:31:32;9.90;99.90
59855;DHT22;45732;52.850;6.896;2023-04-01T16:36:37;9.80;99.90
59855;DHT22;45732;52.850;6.896;2023-04-01T16:42:19;9.70;99.90
59855;DHT22;45732;52.850;6.896;2023-04-01T16:45:35;9.70;99.90
59855;DHT22;45732;52.850;6.896;2023-04-01T16:47:55;9.60;99.90
59855;DHT22;45732;52.850;6.896;2023-04-01T16:50:24;9.60;99.90
59855;DHT22;45732;52.850;6.896;2023-04-01T16:53:08;9.50;99.90
59855;DHT22;45732;52.850;6.896;2023-04-01T16:55:52;9.40;99.90
59855;DHT22;45732;52.850;6.896;2023-04-01T16:58:39;9.30;99.90
59855;DHT22;45732;52.850;6.896;2023-04-01T17:01:20;9.40;99.90
59855;DHT22;45732;52.850;6.896;2023-04-01T17:03:53;9.30;99.90
59855;DHT22;45732;52.850;6.896;2023-04-01T17:06:36;9.40;99.90
59855;DHT22;45732;52.850;6.896;2023-04-01T17:12:17;9.40;99.90
59855;DHT22;45732;52.850;6.896;2023-04-01T17:15:02;9.40;99.90
59855;DHT22;45732;52.850;6.896;2023-04-01T17:23:01;9.30;99.90
59855;DHT22;45732;52.850;6.896;2023-04-01T17:25:49;9.20;99.90
59855;DHT22;45732;52.850;6.896;2023-04-01T17:28:27;9.30;99.90
59855;DHT22;45732;52.850;6.896;2023-04-01T17:31:01;9.30;99.90
59855;DHT22;45732;52.850;6.896;2023-04-01T17:42:34;9.10;99.90
59855;DHT22;45732;52.850;6.896;2023-04-01T17:45:16;9.00;99.90
59855;DHT22;45732;52.850;6.896;2023-04-01T17:59:37;8.90;99.90
59855;DHT22;45732;52.850;6.896;2023-04-01T18:10:57;8.80;99.90
59855;DHT22;45732;52.850;6.896;2023-04-01T18:21:45;8.80;99.90
59855;DHT22;45732;52.850;6.896;2023-04-01T18:27:06;8.70;99.90
59855;DHT22;45732;52.850;6.896;2023-04-01T18:30:01;8.70;99.90
59855;DHT22;45732;52.850;6.896;2023-04-01T18:32:51;8.60;99.90
59855;DHT22;45732;52.850;6.896;2023-04-01T18:50:02;8.50;99.90
59855;DHT22;45732;52.850;6.896;2023-04-01T18:55:47;8.40;99.90
59855;DHT22;45732;52.850;6.896;2023-04-01T18:58:35;8.30;99.90
59855;DHT22;45732;52.850;6.896;2023-04-01T19:01:23;8.30;99.90
59855;DHT22;45732;52.850;6.896;2023-04-01T19:06:43;8.30;99.90
59855;DHT22;45732;52.850;6.896;2023-04-01T19:09:23;8.40;99.90
59855;DHT22;45732;52.850;6.896;2023-04-01T19:12:25;8.40;99.90
59855;DHT22;45732;52.850;6.896;2023-04-01T19:20:32;8.30;99.90
59855;DHT22;45732;52.850;6.896;2023-04-01T19:25:45;8.30;99.90
59855;DHT22;45732;52.850;6.896;2023-04-01T19:31:10;8.20;99.90
59855;DHT22;45732;52.850;6.896;2023-04-01T19:34:14;8.20;99.90
59855;DHT22;45732;52.850;6.896;2023-04-01T19:42:12;8.20;99.90
59855;DHT22;45732;52.850;6.896;2023-04-01T19:50:27;8.10;99.90
59855;DHT22;45732;52.850;6.896;2023-04-01T19:52:57;8.20;99.90
59855;DHT22;45732;52.850;6.896;2023-04-01T19:55:39;8.10;99.90
59855;DHT22;45732;52.850;6.896;2023-04-01T20:00:47;8.10;99.90
59855;DHT22;45732;52.850;6.896;2023-04-01T20:06:00;8.10;99.90
59855;DHT22;45732;52.850;6.896;2023-04-01T20:08:37;8.20;99.90
59855;DHT22;45732;52.850;6.896;2023-04-01T20:11:13;8.10;99.90
59855;DHT22;45732;52.850;6.896;2023-04-01T20:16:58;8.10;99.90
59855;DHT22;45732;52.850;6.896;2023-04-01T20:22:36;8.10;99.90
59855;DHT22;45732;52.850;6.896;2023-04-01T20:28:01;8.00;99.90
59855;DHT22;45732;52.850;6.896;2023-04-01T20:44:31;8.00;99.90
59855;DHT22;45732;52.850;6.896;2023-04-01T20:49:50;8.00;99.90
59855;DHT22;45732;52.850;6.896;2023-04-01T20:52:30;7.90;99.90
59855;DHT22;45732;52.850;6.896;2023-04-01T21:00:57;7.80;99.90
59855;DHT22;45732;52.850;6.896;2023-04-01T21:27:00;7.60;99.90
59855;DHT22;45732;52.850;6.896;2023-04-01T21:29:31;7.50;99.90
59855;DHT22;45732;52.850;6.896;2023-04-01T21:37:44;7.50;99.90
59855;DHT22;45732;52.850;6.896;2023-04-01T22:05:11;7.40;99.90
59855;DHT22;45732;52.850;6.896;2023-04-01T22:07:46;7.40;99.90
59855;DHT22;45732;52.850;6.896;2023-04-01T22:10:21;7.50;99.90
59855;DHT22;45732;52.850;6.896;2023-04-01T22:13:10;7.40;99.90
59855;DHT22;45732;52.850;6.896;2023-04-01T22:18:46;7.50;99.90
59855;DHT22;45732;52.850;6.896;2023-04-01T22:21:33;7.40;99.90
59855;DHT22;45732;52.850;6.896;2023-04-01T22:24:05;7.40;99.90
59855;DHT22;45732;52.850;6.896;2023-04-01T22:29:25;7.30;99.90
59855;DHT22;45732;52.850;6.896;2023-04-01T22:32:02;7.30;99.90
59855;DHT22;45732;52.850;6.896;2023-04-01T22:37:49;7.30;99.90
59855;DHT22;45732;52.850;6.896;2023-04-01T22:43:19;7.30;99.90
59855;DHT22;45732;52.850;6.896;2023-04-01T22:57:08;7.20;99.90
59855;DHT22;45732;52.850;6.896;2023-04-01T22:59:55;7.20;99.90
59855;DHT22;45732;52.850;6.896;2023-04-01T23:02:31;7.10;99.90
59855;DHT22;45732;52.850;6.896;2023-04-01T23:05:00;7.10;99.90
59855;DHT22;45732;52.850;6.896;2023-04-01T23:10:26;7.00;99.90
59855;DHT22;45732;52.850;6.896;2023-04-01T23:12:57;7.00;99.90
59855;DHT22;45732;52.850;6.896;2023-04-01T23:15:24;7.00;99.90
59855;DHT22;45732;52.850;6.896;2023-04-01T23:20:22;7.00;99.90
59855;DHT22;45732;52.850;6.896;2023-04-01T23:35:55;6.80;99.90
59855;DHT22;45732;52.850;6.896;2023-04-01T23:38:24;6.80;99.90
59855;DHT22;45732;52.850;6.896;2023-04-01T23:40:52;6.70;99.90
59855;DHT22;45732;52.850;6.896;2023-04-01T23:43:33;6.60;99.90
59855;DHT22;45732;52.850;6.896;2023-04-01T23:46:02;6.60;99.90
59855;DHT22;45732;52.850;6.896;2023-04-01T23:48:37;6.70;99.90
59855;DHT22;45732;52.850;6.896;2023-04-01T23:51:04;6.60;99.90
59855;DHT22;45732;52.850;6.896;2023-04-01T23:53:36;6.60;99.90
59855;DHT22;45732;52.850;6.896;2023-04-01T23:56:08;6.60;99.90
59855;DHT22;45732;52.850;6.896;2023-04-01T23:58:39;6.60;99.90
